This is the latest recevied weather packets stored in our database for station/object K1KOF. If no packets are shown the sender has not sent any weather packets the latest 10 day(s).
| Time | Temp. | Humidity | Pressure | Rain* | Wind** | Luminosity | Snow |
|---|---|---|---|---|---|---|---|
| 1777500166 | 27.78° C | 70% | 1018.8 hPa | 0 mm | - | 87 W/m² | - |
| 1777499863 | 28.33° C | 68% | 1018.8 hPa | 0 mm | - | 213 W/m² | - |
| 1777499559 | 27.78° C | 69% | 1018.6 hPa | 0 mm | - | 361 W/m² | - |
| 1777499257 | 27.78° C | 70% | 1018.7 hPa | 0 mm | - | 300 W/m² | - |
| 1777498954 | 27.22° C | 72% | 1019 hPa | 0 mm | - | 261 W/m² | - |
| 1777498650 | 27.22° C | 72% | 1018.7 hPa | 0 mm | - | 368 W/m² | - |
| 1777498346 | 27.78° C | 71% | 1018.9 hPa | 0 mm | - | 385 W/m² | - |
| 1777498045 | 27.78° C | 70% | 1019 hPa | 0 mm | - | 327 W/m² | - |
| 1777497741 | 27.22° C | 73% | 1019 hPa | 0 mm | - | 316 W/m² | - |
| 1777497438 | 27.22° C | 71% | 1019.3 hPa | 0 mm | - | 198 W/m² | - |
| 1777497134 | 27.22° C | 71% | 1019 hPa | 0 mm | - | 361 W/m² | - |
| 1777496830 | 27.22° C | 70% | 1019.3 hPa | 0 mm | - | 454 W/m² | - |
| 1777496528 | 27.22° C | 71% | 1019.3 hPa | 0 mm | - | 459 W/m² | - |
| 1777496224 | 27.78° C | 70% | 1019.6 hPa | 0 mm | - | 480 W/m² | - |
| 1777495920 | 27.22° C | 71% | 1019.5 hPa | 0 mm | - | 504 W/m² | - |
| 1777495616 | 27.22° C | 71% | 1019.6 hPa | 0 mm | - | 491 W/m² | - |
| 1777495311 | 27.78° C | 70% | 1019.8 hPa | 0 mm | - | 502 W/m² | - |
| 1777495010 | 27.78° C | 70% | 1019.9 hPa | 0 mm | - | 472 W/m² | - |
| 1777494706 | 26.67° C | 72% | 1019.8 hPa | 0 mm | - | 551 W/m² | - |
| 1777494404 | 26.67° C | 73% | 1020 hPa | 0 mm | - | 166 W/m² | - |
| 1777494099 | 26.67° C | 71% | 1020.2 hPa | 0 mm | - | 240 W/m² | - |
| 1777493797 | 26.11° C | 73% | 1020.1 hPa | 0 mm | - | 372 W/m² | - |
| 1777493496 | 26.67° C | 73% | 1020.1 hPa | 0 mm | - | 219 W/m² | - |
| 1777493192 | 26.67° C | 71% | 1020.2 hPa | 0 mm | - | 186 W/m² | - |
| 1777492888 | 26.67° C | 73% | 1020.4 hPa | 0 mm | - | 246 W/m² | - |
* Rain latest hour (hover to see other rain measurements)
** Current wind speed in m/s (hover to see current wind gust speed)